ロングイェールビーン の空港の天気 - METARとTAF

スヴァールバル空港 ( ENSB / LYR ) - スヴァールバル諸島・ヤンマイエン島 ロングイェールビーン
飛行場実況気象(Metar)
観測時間05/29 18:50 CEST (05/29 16:50 UTC)
風向・風速西南西 8m/s
視程10km以上
天気現象
少しの雲 雲底高度 370m
全天の4割程度の雲 雲底高度 730m
全天の8割程度の雲 雲底高度 1740m
気温6℃
湿度70%
気圧1015hPa
METARENSB 291650Z 24016KT 9999 FEW012 SCT024 BKN057 06/01 Q1015 RMK WIND 1400FT 26005KT
過去の天気等 Google飛行場航空写真 Wunderground天気予報

過去48時間のMETAR

飛行場予報(TAF)
発表時間: -
29日20時 CEST ~ 30日11時 CEST に一時的に
風向・風速西 9m/s
少しの雲 雲底高度 120m
全天の8割程度の雲 雲底高度 180m
TAF ENSB 2912/3012 26008KT 9999 FEW008 BKN018
TEMPO 2918/3009 26018KT FEW004 BKN006